Time;durP1;ratioP1;P1;durP2;ratioP2;P2;SDS_P1;SDS_P2;PMS_P1;PMS_P2;Temp;Humidity;BMP_temperature;BMP_pressure;BME280_temperature;BME280_humidity;BME280_pressure;Samples;Min_cycle;Max_cycle;Signal;HPM_P1;HPM_P2
2022/10/25 00:01:44;;;;;;;7.10;2.22;;;;;;;;;;4984978;28;20398;-60
2022/10/25 00:04:10;;;;;;;14.43;3.17;;;;;;;;;;4988873;28;20034;-59
2022/10/25 00:06:35;;;;;;;10.30;2.20;;;;;;;;;;4988334;28;20048;-61
2022/10/25 00:09:00;;;;;;;10.45;2.40;;;;;;;;;;4985663;28;20050;-62
2022/10/25 00:11:28;;;;;;;7.80;2.40;;;;;;;;;;4987817;28;20077;-62
2022/10/25 00:13:55;;;;;;;7.97;2.10;;;;;;;;;;4985178;28;20050;-61
2022/10/25 00:16:24;;;;;;;10.70;3.10;;;;;;;;;;4988285;28;20042;-61
2022/10/25 00:18:50;;;;;;;14.02;2.90;;;;;;;;;;4987542;28;20070;-59
2022/10/25 00:21:16;;;;;;;8.95;2.50;;;;;;;;;;4989134;28;20126;-59
2022/10/25 00:23:41;;;;;;;13.50;2.53;;;;;;;;;;4992219;28;20125;-61
2022/10/25 00:26:09;;;;;;;8.98;1.75;;;;;;;;;;4988532;28;20038;-60
2022/10/25 00:28:34;;;;;;;7.90;1.92;;;;;;;;;;4987131;28;20050;-60
2022/10/25 00:31:05;;;;;;;9.43;2.20;;;;;;;;;;4987351;28;20046;-60
2022/10/25 00:33:32;;;;;;;7.57;2.33;;;;;;;;;;4985609;28;20065;-61
2022/10/25 00:36:15;;;;;;;7.63;2.50;;;;;;;;;;4986950;28;20065;-61
2022/10/25 00:38:41;;;;;;;10.48;2.30;;;;;;;;;;4990927;28;20074;-61
2022/10/25 00:41:07;;;;;;;9.93;2.15;;;;;;;;;;4986972;28;20044;-61
2022/10/25 00:43:53;;;;;;;6.75;2.03;;;;;;;;;;4990240;28;20051;-62
2022/10/25 00:46:19;;;;;;;12.77;2.35;;;;;;;;;;4990734;28;20724;-62
2022/10/25 00:49:14;;;;;;;9.05;2.20;;;;;;;;;;4986138;28;20049;-65
2022/10/25 00:51:47;;;;;;;9.98;2.08;;;;;;;;;;4987220;28;20062;-62
2022/10/25 00:54:17;;;;;;;5.57;1.77;;;;;;;;;;4984133;28;20054;-62
2022/10/25 00:56:46;;;;;;;8.60;1.95;;;;;;;;;;4988924;28;20042;-59
2022/10/25 00:59:16;;;;;;;9.98;2.08;;;;;;;;;;4984664;28;20046;-61
2022/10/25 01:01:41;;;;;;;8.25;2.08;;;;;;;;;;4985388;28;20046;-61
2022/10/25 01:04:10;;;;;;;5.22;1.75;;;;;;;;;;4989233;28;20045;-64
2022/10/25 01:06:38;;;;;;;9.32;2.08;;;;;;;;;;4983004;28;20059;-63
2022/10/25 01:09:05;;;;;;;12.40;2.72;;;;;;;;;;4985157;28;20091;-62
2022/10/25 01:11:31;;;;;;;5.80;2.10;;;;;;;;;;4985138;28;20050;-62
2022/10/25 01:13:57;;;;;;;9.57;2.22;;;;;;;;;;4986313;28;20394;-62
2022/10/25 01:16:54;;;;;;;11.57;2.28;;;;;;;;;;4988045;28;20040;-62
2022/10/25 01:19:45;;;;;;;7.57;2.67;;;;;;;;;;4990780;28;20046;-62
2022/10/25 01:22:20;;;;;;;9.73;2.13;;;;;;;;;;4987209;28;20509;-63
2022/10/25 01:24:54;;;;;;;4.32;2.13;;;;;;;;;;4990223;28;20959;-61
2022/10/25 01:27:20;;;;;;;11.55;2.40;;;;;;;;;;4985124;28;20077;-62
2022/10/25 01:29:57;;;;;;;14.60;2.25;;;;;;;;;;4985030;28;20486;-62
2022/10/25 01:32:44;;;;;;;7.22;2.00;;;;;;;;;;4988285;28;20061;-60
2022/10/25 01:35:12;;;;;;;11.25;2.00;;;;;;;;;;4990537;28;20780;-62
2022/10/25 01:37:54;;;;;;;6.82;1.85;;;;;;;;;;4988260;28;20069;-62
2022/10/25 01:40:38;;;;;;;8.10;1.80;;;;;;;;;;4987043;28;20045;-63
2022/10/25 01:43:03;;;;;;;8.48;2.13;;;;;;;;;;4984986;28;20049;-62
2022/10/25 01:45:59;;;;;;;9.13;2.35;;;;;;;;;;4984593;28;20137;-60
2022/10/25 01:48:40;;;;;;;8.73;1.77;;;;;;;;;;4979366;28;20050;-63
2022/10/25 01:51:11;;;;;;;10.57;2.13;;;;;;;;;;4984779;28;20050;-60
2022/10/25 01:53:43;;;;;;;9.55;1.83;;;;;;;;;;4989851;28;20109;-60
2022/10/25 01:56:14;;;;;;;6.88;1.65;;;;;;;;;;4990890;28;20397;-61
2022/10/25 01:59:07;;;;;;;7.15;2.20;;;;;;;;;;4989107;28;20057;-60
2022/10/25 02:01:44;;;;;;;19.13;2.20;;;;;;;;;;4984116;28;20074;-60
2022/10/25 02:04:19;;;;;;;9.38;1.95;;;;;;;;;;4988784;28;20292;-60
2022/10/25 02:07:14;;;;;;;9.02;1.80;;;;;;;;;;4987585;28;20038;-60
2022/10/25 02:09:48;;;;;;;6.32;1.30;;;;;;;;;;4988171;28;20437;-61
2022/10/25 02:12:23;;;;;;;4.00;1.70;;;;;;;;;;4987742;28;20054;-61
2022/10/25 02:15:09;;;;;;;7.82;1.75;;;;;;;;;;4993258;28;20060;-61
2022/10/25 02:17:42;;;;;;;6.80;1.35;;;;;;;;;;4988721;28;20042;-60
2022/10/25 02:20:10;;;;;;;16.52;1.90;;;;;;;;;;4989827;28;20046;-60
2022/10/25 02:22:37;;;;;;;6.00;1.95;;;;;;;;;;4991028;28;20050;-61
2022/10/25 02:25:05;;;;;;;8.77;1.90;;;;;;;;;;4989297;28;20030;-60
2022/10/25 02:27:31;;;;;;;4.93;1.60;;;;;;;;;;4992846;28;20042;-60
2022/10/25 02:29:58;;;;;;;7.70;1.85;;;;;;;;;;4992410;28;20046;-60
2022/10/25 02:32:24;;;;;;;7.90;1.55;;;;;;;;;;4993713;28;20055;-63
2022/10/25 02:34:50;;;;;;;5.60;2.17;;;;;;;;;;4993507;28;20450;-62
2022/10/25 02:37:16;;;;;;;7.10;1.98;;;;;;;;;;4991300;28;20038;-63
2022/10/25 02:39:43;;;;;;;9.98;1.60;;;;;;;;;;4991385;28;20497;-60
2022/10/25 02:42:09;;;;;;;6.63;1.60;;;;;;;;;;4987102;28;20513;-60
2022/10/25 02:44:34;;;;;;;7.43;2.13;;;;;;;;;;4987507;28;20050;-60
2022/10/25 02:47:00;;;;;;;4.07;1.48;;;;;;;;;;4988850;28;20081;-63
2022/10/25 02:49:25;;;;;;;10.70;2.00;;;;;;;;;;4992556;28;20038;-61
2022/10/25 02:51:50;;;;;;;6.18;1.38;;;;;;;;;;4989816;28;20044;-61
2022/10/25 02:54:16;;;;;;;6.95;1.60;;;;;;;;;;4988804;28;20085;-61
2022/10/25 02:56:41;;;;;;;6.80;1.85;;;;;;;;;;4989564;28;20046;-61
2022/10/25 02:59:10;;;;;;;5.57;1.80;;;;;;;;;;4986032;28;20557;-61
2022/10/25 03:01:35;;;;;;;9.55;1.80;;;;;;;;;;4985098;28;20109;-60
2022/10/25 03:04:01;;;;;;;6.38;1.60;;;;;;;;;;4989181;28;20038;-61
2022/10/25 03:06:26;;;;;;;6.15;1.67;;;;;;;;;;4969237;28;20495;-61
2022/10/25 03:08:52;;;;;;;7.30;1.90;;;;;;;;;;4986061;28;20046;-62
2022/10/25 03:11:17;;;;;;;4.38;1.48;;;;;;;;;;4988816;28;20050;-61
2022/10/25 03:13:43;;;;;;;8.70;1.80;;;;;;;;;;4993330;28;20096;-62
2022/10/25 03:16:08;;;;;;;10.02;1.83;;;;;;;;;;4990959;28;20042;-63
2022/10/25 03:18:34;;;;;;;11.85;1.73;;;;;;;;;;4985992;28;21457;-62
2022/10/25 03:21:01;;;;;;;6.80;1.65;;;;;;;;;;4987881;28;20502;-60
2022/10/25 03:23:27;;;;;;;8.60;1.90;;;;;;;;;;4988580;28;20108;-60
2022/10/25 03:25:54;;;;;;;3.80;1.58;;;;;;;;;;4989347;28;20062;-61
2022/10/25 03:28:20;;;;;;;7.97;1.60;;;;;;;;;;4988794;28;20093;-60
2022/10/25 03:30:45;;;;;;;10.05;1.77;;;;;;;;;;4988073;28;20031;-61
2022/10/25 03:33:11;;;;;;;7.32;1.80;;;;;;;;;;4986474;28;20054;-61
2022/10/25 03:35:36;;;;;;;4.20;1.83;;;;;;;;;;4988017;28;20125;-61
2022/10/25 03:38:02;;;;;;;5.47;1.58;;;;;;;;;;4986661;28;20402;-61
2022/10/25 03:40:28;;;;;;;7.03;1.77;;;;;;;;;;4987029;28;20422;-61
2022/10/25 03:42:54;;;;;;;4.30;1.27;;;;;;;;;;4988618;28;20034;-61
2022/10/25 03:45:19;;;;;;;5.32;1.88;;;;;;;;;;4989943;28;20061;-61
2022/10/25 03:47:45;;;;;;;5.32;1.40;;;;;;;;;;4986551;28;20050;-61
2022/10/25 03:50:10;;;;;;;11.38;1.90;;;;;;;;;;4987131;28;20057;-60
2022/10/25 03:52:36;;;;;;;10.80;1.85;;;;;;;;;;4985877;28;20437;-61
2022/10/25 03:55:02;;;;;;;6.57;1.50;;;;;;;;;;4986171;28;20485;-61
2022/10/25 03:57:27;;;;;;;8.90;1.40;;;;;;;;;;4985255;28;20387;-62
2022/10/25 03:59:52;;;;;;;5.65;1.80;;;;;;;;;;4986417;28;20039;-60
2022/10/25 04:02:18;;;;;;;4.07;1.48;;;;;;;;;;4981976;28;20054;-61
2022/10/25 04:04:43;;;;;;;7.00;1.75;;;;;;;;;;4986065;28;20053;-63
2022/10/25 04:07:09;;;;;;;7.45;1.40;;;;;;;;;;4986356;28;20051;-61
2022/10/25 04:09:34;;;;;;;6.28;2.35;;;;;;;;;;4985352;28;20223;-61
2022/10/25 04:12:01;;;;;;;5.35;2.28;;;;;;;;;;4984276;28;20066;-61
2022/10/25 04:14:26;;;;;;;9.45;2.20;;;;;;;;;;4984554;28;20043;-61
2022/10/25 04:16:52;;;;;;;3.95;1.73;;;;;;;;;;4986671;28;20153;-61
2022/10/25 04:19:17;;;;;;;9.02;1.77;;;;;;;;;;4983223;28;20034;-63
2022/10/25 04:21:43;;;;;;;9.30;1.70;;;;;;;;;;4982451;28;20034;-62
2022/10/25 04:24:09;;;;;;;5.72;1.63;;;;;;;;;;4984290;28;20054;-61
2022/10/25 04:26:35;;;;;;;6.05;1.52;;;;;;;;;;4984339;28;21494;-61
2022/10/25 04:29:03;;;;;;;11.27;1.80;;;;;;;;;;4986984;28;20058;-61
2022/10/25 04:31:28;;;;;;;5.47;1.67;;;;;;;;;;4987064;28;20030;-61
2022/10/25 04:33:54;;;;;;;4.68;1.80;;;;;;;;;;4985757;28;20398;-61
2022/10/25 04:36:22;;;;;;;8.15;1.80;;;;;;;;;;4982477;28;20058;-61
2022/10/25 04:38:51;;;;;;;8.45;1.60;;;;;;;;;;4983204;28;20120;-60
2022/10/25 04:41:18;;;;;;;5.93;1.75;;;;;;;;;;4978646;28;20134;-60
2022/10/25 04:43:43;;;;;;;4.80;1.40;;;;;;;;;;4983352;28;20039;-61
2022/10/25 04:46:08;;;;;;;6.78;1.70;;;;;;;;;;4984560;28;20046;-61
2022/10/25 04:48:41;;;;;;;9.02;1.50;;;;;;;;;;4987815;28;20050;-61
2022/10/25 04:51:07;;;;;;;6.65;1.90;;;;;;;;;;4984764;28;20043;-61
2022/10/25 04:53:33;;;;;;;6.03;1.73;;;;;;;;;;4986788;28;20080;-61
2022/10/25 04:56:00;;;;;;;9.70;2.15;;;;;;;;;;4986055;28;20062;-62
2022/10/25 04:58:26;;;;;;;6.10;2.00;;;;;;;;;;4981815;28;20088;-60
2022/10/25 05:00:53;;;;;;;3.10;1.73;;;;;;;;;;4982350;28;20049;-61
2022/10/25 05:03:19;;;;;;;4.25;2.10;;;;;;;;;;4984800;28;20054;-61
2022/10/25 05:05:44;;;;;;;9.43;2.35;;;;;;;;;;4982605;28;20078;-61
2022/10/25 05:08:10;;;;;;;10.30;3.40;;;;;;;;;;4983638;28;20081;-60
2022/10/25 05:10:35;;;;;;;15.98;3.83;;;;;;;;;;4986662;28;20393;-62
2022/10/25 05:13:01;;;;;;;10.68;3.60;;;;;;;;;;4987405;28;20042;-63
2022/10/25 05:15:27;;;;;;;10.88;3.92;;;;;;;;;;4985895;28;20684;-62
2022/10/25 05:17:56;;;;;;;9.65;4.10;;;;;;;;;;4977672;28;20054;-62
2022/10/25 05:20:22;;;;;;;11.18;4.22;;;;;;;;;;4983467;28;20092;-62
2022/10/25 05:22:47;;;;;;;11.27;4.00;;;;;;;;;;4986967;28;20486;-61
2022/10/25 05:25:13;;;;;;;8.43;4.18;;;;;;;;;;4982880;28;20062;-62
2022/10/25 05:27:38;;;;;;;9.68;3.47;;;;;;;;;;4985508;28;20157;-63
2022/10/25 05:30:04;;;;;;;8.02;4.18;;;;;;;;;;4983458;28;20053;-62
2022/10/25 05:32:30;;;;;;;11.25;4.43;;;;;;;;;;4982016;28;20520;-61
2022/10/25 05:34:55;;;;;;;15.23;5.13;;;;;;;;;;4984418;28;20046;-61
2022/10/25 05:37:21;;;;;;;17.63;5.63;;;;;;;;;;4984311;28;20053;-61
2022/10/25 05:39:46;;;;;;;14.80;6.28;;;;;;;;;;4982745;28;20030;-62
2022/10/25 05:42:11;;;;;;;13.07;5.88;;;;;;;;;;4981003;28;20493;-61
2022/10/25 05:44:37;;;;;;;16.50;5.05;;;;;;;;;;4985760;28;20062;-61
2022/10/25 05:47:02;;;;;;;10.57;4.22;;;;;;;;;;4985934;28;20051;-60
2022/10/25 05:49:27;;;;;;;14.18;4.22;;;;;;;;;;4982867;28;20058;-61
2022/10/25 05:51:53;;;;;;;14.75;4.43;;;;;;;;;;4987267;28;20088;-61
2022/10/25 05:54:18;;;;;;;19.15;4.40;;;;;;;;;;4984853;28;20049;-61
2022/10/25 05:56:44;;;;;;;10.48;3.97;;;;;;;;;;4981846;28;20051;-60
2022/10/25 05:59:13;;;;;;;9.65;3.88;;;;;;;;;;4983564;28;20125;-70
2022/10/25 06:01:41;;;;;;;11.15;4.00;;;;;;;;;;4982811;28;20586;-69
2022/10/25 06:04:07;;;;;;;9.48;4.43;;;;;;;;;;4985606;28;20030;-70
2022/10/25 06:06:33;;;;;;;9.77;4.75;;;;;;;;;;4960425;28;20497;-69
2022/10/25 06:08:59;;;;;;;11.80;4.43;;;;;;;;;;4978378;28;20067;-71
2022/10/25 06:11:26;;;;;;;10.98;4.05;;;;;;;;;;4988499;28;20398;-69
2022/10/25 06:13:52;;;;;;;10.00;4.55;;;;;;;;;;4987983;28;20050;-71
2022/10/25 06:16:19;;;;;;;13.82;3.88;;;;;;;;;;4984910;28;20045;-69
2022/10/25 06:18:45;;;;;;;10.95;4.00;;;;;;;;;;4983863;28;20630;-69
2022/10/25 06:21:13;;;;;;;11.82;4.40;;;;;;;;;;4978656;28;20058;-68
2022/10/25 06:23:40;;;;;;;11.25;5.10;;;;;;;;;;4985211;28;20133;-66
2022/10/25 06:26:12;;;;;;;17.60;6.18;;;;;;;;;;4982641;28;20045;-67
2022/10/25 06:28:38;;;;;;;20.15;5.80;;;;;;;;;;4978258;28;20046;-67
2022/10/25 06:31:10;;;;;;;14.70;5.30;;;;;;;;;;4981635;28;20117;-66
2022/10/25 06:33:36;;;;;;;8.43;3.78;;;;;;;;;;4980614;28;20046;-66
2022/10/25 06:36:03;;;;;;;14.70;4.78;;;;;;;;;;4982640;28;20046;-69
2022/10/25 06:38:29;;;;;;;10.45;4.30;;;;;;;;;;4983946;28;20046;-67
2022/10/25 06:41:02;;;;;;;11.32;3.10;;;;;;;;;;4979689;28;20318;-68
2022/10/25 06:43:28;;;;;;;;;;;;;;;;;;4984673;28;20042;-66
2022/10/25 06:45:54;;;;;;;9.27;4.32;;;;;;;;;;4985079;28;19928;-67
2022/10/25 06:48:20;;;;;;;10.57;3.03;;;;;;;;;;4984582;28;20050;-68
2022/10/25 06:50:46;;;;;;;6.15;3.08;;;;;;;;;;4980741;28;20050;-68
2022/10/25 06:53:12;;;;;;;13.95;3.60;;;;;;;;;;4984514;28;20051;-68
2022/10/25 06:55:37;;;;;;;11.52;3.00;;;;;;;;;;4978793;28;20050;-66
2022/10/25 06:58:02;;;;;;;8.20;3.25;;;;;;;;;;4973947;28;20128;-71
2022/10/25 07:00:28;;;;;;;14.40;3.70;;;;;;;;;;4982274;28;20045;-66
2022/10/25 07:02:58;;;;;;;7.72;2.80;;;;;;;;;;4986335;28;20050;-66
2022/10/25 07:05:24;;;;;;;14.32;3.28;;;;;;;;;;4989839;28;20054;-67
2022/10/25 07:07:50;;;;;;;7.75;3.30;;;;;;;;;;4984148;28;20204;-66
2022/10/25 07:10:16;;;;;;;9.48;2.90;;;;;;;;;;4988715;28;20113;-66
2022/10/25 07:12:42;;;;;;;7.60;2.42;;;;;;;;;;4985565;28;20382;-67
2022/10/25 07:15:08;;;;;;;9.52;2.00;;;;;;;;;;4988918;28;20069;-66
2022/10/25 07:17:33;;;;;;;8.93;1.90;;;;;;;;;;4988337;28;20512;-66
2022/10/25 07:19:58;;;;;;;10.90;2.28;;;;;;;;;;4982782;28;20113;-67
2022/10/25 07:22:24;;;;;;;5.53;1.55;;;;;;;;;;4989299;28;20050;-67
2022/10/25 07:24:50;;;;;;;7.13;2.15;;;;;;;;;;4984309;28;20538;-67
2022/10/25 07:27:15;;;;;;;5.90;1.65;;;;;;;;;;4974995;28;20057;-67
2022/10/25 07:29:41;;;;;;;6.85;1.92;;;;;;;;;;4985954;28;20046;-66
2022/10/25 07:32:07;;;;;;;10.00;2.70;;;;;;;;;;4982802;28;20057;-66
2022/10/25 07:34:33;;;;;;;7.53;2.08;;;;;;;;;;4983688;28;20050;-66
2022/10/25 07:36:58;;;;;;;10.07;2.08;;;;;;;;;;4982803;28;20497;-67
2022/10/25 07:39:24;;;;;;;9.73;1.92;;;;;;;;;;4980417;28;20557;-66
2022/10/25 07:41:49;;;;;;;6.80;2.28;;;;;;;;;;4982094;28;20755;-67
2022/10/25 07:44:15;;;;;;;8.02;1.90;;;;;;;;;;4980042;28;20112;-67
2022/10/25 07:46:40;;;;;;;9.60;2.20;;;;;;;;;;4983474;28;20159;-67
2022/10/25 07:49:06;;;;;;;5.32;2.08;;;;;;;;;;4983869;28;20034;-67
2022/10/25 07:51:31;;;;;;;5.35;1.60;;;;;;;;;;4983889;28;20043;-66
2022/10/25 07:53:56;;;;;;;4.82;2.10;;;;;;;;;;4983582;28;20779;-66
2022/10/25 07:56:22;;;;;;;5.00;2.00;;;;;;;;;;4984863;28;20058;-67
2022/10/25 07:58:47;;;;;;;5.38;1.98;;;;;;;;;;4980633;28;20051;-67
2022/10/25 08:01:18;;;;;;;7.20;1.80;;;;;;;;;;4980334;28;20058;-67
2022/10/25 08:03:43;;;;;;;7.57;1.88;;;;;;;;;;4982264;28;20055;-66
2022/10/25 08:06:09;;;;;;;6.20;1.63;;;;;;;;;;4983292;28;20537;-66
2022/10/25 08:08:35;;;;;;;6.22;1.90;;;;;;;;;;4983508;28;20112;-67
2022/10/25 08:11:03;;;;;;;8.43;2.08;;;;;;;;;;4983729;28;20052;-67
2022/10/25 08:13:28;;;;;;;6.88;1.75;;;;;;;;;;4982601;28;20030;-66
2022/10/25 08:15:55;;;;;;;7.15;1.60;;;;;;;;;;4982567;28;20046;-67
2022/10/25 08:18:22;;;;;;;4.38;1.70;;;;;;;;;;4980689;28;20062;-67
2022/10/25 08:20:47;;;;;;;6.65;1.80;;;;;;;;;;4975662;28;20506;-67
2022/10/25 08:23:13;;;;;;;9.85;2.08;;;;;;;;;;4982750;28;20133;-67
2022/10/25 08:25:39;;;;;;;7.75;1.65;;;;;;;;;;4982128;28;20045;-67
2022/10/25 08:28:05;;;;;;;5.13;1.50;;;;;;;;;;4982143;28;20720;-67
2022/10/25 08:30:30;;;;;;;7.22;1.67;;;;;;;;;;4981917;28;20131;-66
2022/10/25 08:32:56;;;;;;;3.22;1.52;;;;;;;;;;4982734;28;20049;-67
2022/10/25 08:35:21;;;;;;;6.32;2.47;;;;;;;;;;4976124;28;20050;-67
2022/10/25 08:37:46;;;;;;;6.70;1.70;;;;;;;;;;4978145;28;20046;-67
2022/10/25 08:40:50;;;;;;;5.90;2.17;;;;;;;;;;4983039;28;20585;-67
2022/10/25 08:43:43;;;;;;;13.13;1.80;;;;;;;;;;4981499;28;20046;-67
2022/10/25 08:46:15;;;;;;;8.60;1.60;;;;;;;;;;4986771;28;20038;-67
2022/10/25 08:48:46;;;;;;;7.60;1.85;;;;;;;;;;4983093;28;20317;-66
2022/10/25 08:51:18;;;;;;;6.50;1.85;;;;;;;;;;4983248;28;20402;-67
2022/10/25 08:53:47;;;;;;;5.35;1.92;;;;;;;;;;4983322;28;20050;-66
2022/10/25 08:56:15;;;;;;;6.82;1.70;;;;;;;;;;4986148;28;20073;-67
2022/10/25 08:58:59;;;;;;;13.85;1.92;;;;;;;;;;4983111;28;20050;-68
2022/10/25 09:01:35;;;;;;;6.80;1.80;;;;;;;;;;4986001;28;20042;-69
2022/10/25 09:04:00;;;;;;;7.43;2.22;;;;;;;;;;4983912;28;20370;-68
2022/10/25 09:06:38;;;;;;;8.07;1.88;;;;;;;;;;4981791;28;20109;-67
2022/10/25 09:09:44;;;;;;;4.72;1.70;;;;;;;;;;4975887;28;20099;-68
2022/10/25 09:12:29;;;;;;;3.20;1.40;;;;;;;;;;4978993;28;21093;-68
2022/10/25 09:15:13;;;;;;;6.85;1.80;;;;;;;;;;4976313;28;20422;-67
2022/10/25 09:17:52;;;;;;;8.38;1.88;;;;;;;;;;4981152;28;20058;-68
2022/10/25 09:20:23;;;;;;;6.60;1.80;;;;;;;;;;4985403;28;20161;-68
2022/10/25 09:22:56;;;;;;;5.00;1.58;;;;;;;;;;4981572;28;20128;-68
2022/10/25 09:25:37;;;;;;;5.88;1.67;;;;;;;;;;4987015;28;20038;-68
2022/10/25 09:28:09;;;;;;;6.10;1.70;;;;;;;;;;4983553;28;20167;-68
2022/10/25 09:30:38;;;;;;;4.03;1.73;;;;;;;;;;4980017;28;20058;-67
2022/10/25 09:33:19;;;;;;;6.03;1.83;;;;;;;;;;4979931;28;20150;-69
2022/10/25 09:35:47;;;;;;;5.20;1.48;;;;;;;;;;4982228;28;20173;-68
2022/10/25 09:38:25;;;;;;;7.03;1.58;;;;;;;;;;4983950;28;20339;-67
2022/10/25 09:41:02;;;;;;;5.75;1.63;;;;;;;;;;4976155;28;20420;-67
2022/10/25 09:44:00;;;;;;;5.63;1.50;;;;;;;;;;4979174;28;20038;-65
2022/10/25 09:46:34;;;;;;;7.47;1.80;;;;;;;;;;4976645;28;20047;-66
2022/10/25 09:49:41;;;;;;;7.75;1.80;;;;;;;;;;4978727;28;20035;-67
2022/10/25 09:52:27;;;;;;;6.28;1.70;;;;;;;;;;4957343;28;20061;-66
2022/10/25 09:55:13;;;;;;;2.95;1.40;;;;;;;;;;4984258;28;20082;-69
2022/10/25 09:57:39;;;;;;;6.70;1.50;;;;;;;;;;4978245;28;20504;-68
2022/10/25 10:00:05;;;;;;;6.45;1.80;;;;;;;;;;4979001;28;20054;-68
2022/10/25 10:02:30;;;;;;;9.73;1.65;;;;;;;;;;4983178;28;20058;-68
2022/10/25 10:04:56;;;;;;;4.38;1.50;;;;;;;;;;4979175;28;20658;-69
2022/10/25 10:07:34;;;;;;;5.50;1.35;;;;;;;;;;4982228;28;20088;-69
2022/10/25 10:10:04;;;;;;;8.00;1.40;;;;;;;;;;4980788;28;20122;-67
2022/10/25 10:13:06;;;;;;;5.85;1.38;;;;;;;;;;4976848;28;20070;-64
2022/10/25 10:15:37;;;;;;;5.03;1.48;;;;;;;;;;4984981;28;20546;-66
2022/10/25 10:18:24;;;;;;;3.65;1.40;;;;;;;;;;4983417;28;20073;-66
2022/10/25 10:21:04;;;;;;;5.10;1.38;;;;;;;;;;4982205;28;20058;-66
2022/10/25 10:23:34;;;;;;;7.43;1.75;;;;;;;;;;4983593;28;20051;-66
2022/10/25 10:26:07;;;;;;;4.18;1.40;;;;;;;;;;4982774;28;20073;-66
2022/10/25 10:28:33;;;;;;;5.40;1.13;;;;;;;;;;4981640;28;20130;-65
2022/10/25 10:31:00;;;;;;;8.02;1.38;;;;;;;;;;4982401;28;20456;-66
2022/10/25 10:33:31;;;;;;;4.75;1.13;;;;;;;;;;4980925;28;20104;-66
2022/10/25 10:36:24;;;;;;;4.68;1.23;;;;;;;;;;4984977;28;20038;-67
2022/10/25 10:38:50;;;;;;;4.43;1.30;;;;;;;;;;4980817;28;20137;-66
2022/10/25 10:41:27;;;;;;;7.43;1.48;;;;;;;;;;4982215;28;20046;-66
2022/10/25 10:44:07;;;;;;;3.78;1.20;;;;;;;;;;4981007;28;20051;-66
2022/10/25 10:46:33;;;;;;;5.78;1.10;;;;;;;;;;4982708;28;20047;-66
2022/10/25 10:49:01;;;;;;;5.93;1.08;;;;;;;;;;4984583;28;20097;-66
2022/10/25 10:51:39;;;;;;;8.40;1.10;;;;;;;;;;4986339;28;20080;-65
2022/10/25 10:54:37;;;;;;;3.25;1.10;;;;;;;;;;4980593;28;20100;-66
2022/10/25 10:57:06;;;;;;;5.03;1.10;;;;;;;;;;4982723;28;20058;-68
2022/10/25 10:59:36;;;;;;;6.68;1.13;;;;;;;;;;4986645;28;20097;-72
2022/10/25 11:02:27;;;;;;;4.03;0.85;;;;;;;;;;4987672;28;20049;-68
2022/10/25 11:04:54;;;;;;;3.95;1.17;;;;;;;;;;4982235;28;20057;-67
2022/10/25 11:07:26;;;;;;;3.88;1.05;;;;;;;;;;4980568;28;20047;-66
2022/10/25 11:09:51;;;;;;;3.55;1.10;;;;;;;;;;4983359;28;20035;-66
2022/10/25 11:12:17;;;;;;;4.00;1.00;;;;;;;;;;4984315;28;20445;-67
2022/10/25 11:14:43;;;;;;;6.05;1.70;;;;;;;;;;4986825;28;20062;-65
2022/10/25 11:17:17;;;;;;;4.93;1.08;;;;;;;;;;4982093;28;20418;-66
2022/10/25 11:20:01;;;;;;;5.82;1.75;;;;;;;;;;4989730;28;20054;-66
2022/10/25 11:22:52;;;;;;;3.17;0.82;;;;;;;;;;4986864;28;20448;-66
2022/10/25 11:25:36;;;;;;;5.43;1.00;;;;;;;;;;4984149;28;20461;-66
2022/10/25 11:28:13;;;;;;;2.95;0.77;;;;;;;;;;4988488;28;20061;-66
2022/10/25 11:31:07;;;;;;;5.78;0.80;;;;;;;;;;4987775;28;20054;-68
2022/10/25 11:33:35;;;;;;;4.38;0.88;;;;;;;;;;4986892;28;20138;-67
2022/10/25 11:36:30;;;;;;;6.00;1.60;;;;;;;;;;4986337;28;20068;-66
2022/10/25 11:39:15;;;;;;;2.00;0.75;;;;;;;;;;4961808;28;20042;-66
2022/10/25 11:41:45;;;;;;;1.58;0.77;;;;;;;;;;4983988;28;20100;-65
2022/10/25 11:44:29;;;;;;;4.60;1.08;;;;;;;;;;4982886;28;20161;-66
2022/10/25 11:47:19;;;;;;;6.40;1.30;;;;;;;;;;4985952;28;20406;-66
2022/10/25 11:50:12;;;;;;;3.97;0.88;;;;;;;;;;4985766;28;20076;-66
2022/10/25 11:53:15;;;;;;;4.32;0.80;;;;;;;;;;4986904;28;20060;-66
2022/10/25 11:55:50;;;;;;;2.65;0.70;;;;;;;;;;4983135;28;21005;-66
2022/10/25 11:58:31;;;;;;;4.22;1.00;;;;;;;;;;4982229;28;20038;-66
2022/10/25 12:01:17;;;;;;;8.02;1.08;;;;;;;;;;4984116;28;20031;-69
2022/10/25 12:04:06;;;;;;;3.33;0.80;;;;;;;;;;4985517;28;20618;-66
2022/10/25 12:06:35;;;;;;;8.40;0.98;;;;;;;;;;4984229;28;20054;-66
2022/10/25 12:09:33;;;;;;;1.83;0.80;;;;;;;;;;4987347;28;20112;-67
2022/10/25 12:12:04;;;;;;;2.63;0.90;;;;;;;;;;4988776;28;20053;-66
2022/10/25 12:14:35;;;;;;;2.35;0.70;;;;;;;;;;4986176;28;20137;-67
2022/10/25 12:17:03;;;;;;;4.72;0.70;;;;;;;;;;4981958;28;20413;-66
2022/10/25 12:19:42;;;;;;;3.08;0.85;;;;;;;;;;4989009;28;20041;-66
2022/10/25 12:22:16;;;;;;;2.65;0.80;;;;;;;;;;4979081;28;20030;-66
2022/10/25 12:24:48;;;;;;;2.50;0.80;;;;;;;;;;4986088;28;20620;-67
2022/10/25 12:27:15;;;;;;;;;;;;;;;;;;4986791;28;20053;-66
2022/10/25 12:29:45;;;;;;;2.13;1.00;;;;;;;;;;4987296;28;19964;-66
2022/10/25 12:32:17;;;;;;;8.68;1.10;;;;;;;;;;4983803;28;20046;-66
2022/10/25 12:34:47;;;;;;;2.08;0.93;;;;;;;;;;4982400;28;20053;-66
2022/10/25 12:37:23;;;;;;;1.30;0.57;;;;;;;;;;4984425;28;20034;-67
2022/10/25 12:39:48;;;;;;;2.50;0.73;;;;;;;;;;4981835;28;20027;-67
2022/10/25 12:42:33;;;;;;;4.13;0.70;;;;;;;;;;4982508;28;20049;-66
2022/10/25 12:45:26;;;;;;;5.68;1.02;;;;;;;;;;5000627;28;20124;-66
2022/10/25 12:48:03;;;;;;;3.20;1.00;;;;;;;;;;4982470;28;20114;-66
2022/10/25 12:50:40;;;;;;;1.63;0.80;;;;;;;;;;4977785;28;20096;-66
2022/10/25 12:53:45;;;;;;;5.03;1.08;;;;;;;;;;4983848;28;20049;-66
2022/10/25 12:56:38;;;;;;;4.15;0.90;;;;;;;;;;4972385;28;20461;-66
2022/10/25 12:59:21;;;;;;;4.60;1.33;;;;;;;;;;4981242;28;20051;-66
2022/10/25 13:02:02;;;;;;;2.95;0.80;;;;;;;;;;4979471;28;20161;-66
2022/10/25 13:04:27;;;;;;;3.47;1.10;;;;;;;;;;4987693;28;20084;-66
2022/10/25 13:06:54;;;;;;;3.00;0.75;;;;;;;;;;4984870;28;20056;-66
2022/10/25 13:09:21;;;;;;;6.82;0.82;;;;;;;;;;4981492;28;20043;-66
2022/10/25 13:11:57;;;;;;;3.35;0.90;;;;;;;;;;4980487;28;20051;-66
2022/10/25 13:14:29;;;;;;;2.42;0.70;;;;;;;;;;4983062;28;20046;-66
2022/10/25 13:17:13;;;;;;;4.10;1.02;;;;;;;;;;4983720;28;20495;-66
2022/10/25 13:19:38;;;;;;;6.28;1.08;;;;;;;;;;4982353;28;20452;-66
2022/10/25 13:22:11;;;;;;;2.72;0.98;;;;;;;;;;4983007;28;20041;-66
2022/10/25 13:24:44;;;;;;;1.52;0.80;;;;;;;;;;4984825;28;20063;-66
2022/10/25 13:27:12;;;;;;;1.85;0.77;;;;;;;;;;4979820;28;20141;-66
2022/10/25 13:29:56;;;;;;;1.85;0.70;;;;;;;;;;4984461;28;20042;-67
2022/10/25 13:32:22;;;;;;;5.43;1.08;;;;;;;;;;4979845;28;20109;-67
2022/10/25 13:34:48;;;;;;;6.28;1.17;;;;;;;;;;4985906;28;20596;-67
2022/10/25 13:37:43;;;;;;;3.13;0.80;;;;;;;;;;4987071;28;20030;-67
2022/10/25 13:40:20;;;;;;;3.22;0.80;;;;;;;;;;4969814;28;20046;-68
2022/10/25 13:42:48;;;;;;;4.07;1.38;;;;;;;;;;4985554;28;20062;-69
2022/10/25 13:45:34;;;;;;;3.40;0.68;;;;;;;;;;4982156;28;20055;-67
2022/10/25 13:48:12;;;;;;;4.10;0.80;;;;;;;;;;4980934;28;20046;-68
2022/10/25 13:50:48;;;;;;;2.42;0.75;;;;;;;;;;4985194;28;20579;-68
2022/10/25 13:53:31;;;;;;;3.78;0.60;;;;;;;;;;4983949;28;20392;-68
2022/10/25 13:56:04;;;;;;;2.40;1.00;;;;;;;;;;4983599;28;20054;-68
2022/10/25 13:58:30;;;;;;;2.72;0.73;;;;;;;;;;4982622;28;20552;-68
2022/10/25 14:01:17;;;;;;;1.88;0.60;;;;;;;;;;4990293;28;20042;-67
2022/10/25 14:03:49;;;;;;;1.02;0.68;;;;;;;;;;4985736;28;20524;-68
2022/10/25 14:06:26;;;;;;;5.17;0.80;;;;;;;;;;4986040;28;20085;-68
2022/10/25 14:08:58;;;;;;;1.63;0.50;;;;;;;;;;4985160;28;20368;-67
2022/10/25 14:11:53;;;;;;;4.28;0.70;;;;;;;;;;4985510;28;20085;-67
2022/10/25 14:14:58;;;;;;;2.40;0.55;;;;;;;;;;4983455;28;20137;-67
2022/10/25 14:17:33;;;;;;;2.28;0.68;;;;;;;;;;4966401;28;20050;-67
2022/10/25 14:20:02;;;;;;;2.00;0.50;;;;;;;;;;4986828;28;20050;-68
2022/10/25 14:22:49;;;;;;;4.05;0.60;;;;;;;;;;4987601;28;20053;-67
2022/10/25 14:25:22;;;;;;;1.30;0.52;;;;;;;;;;4988149;28;20034;-68
2022/10/25 14:27:48;;;;;;;2.28;0.70;;;;;;;;;;4986741;28;20129;-68
2022/10/25 14:30:28;;;;;;;2.72;0.80;;;;;;;;;;4985403;28;20133;-67
2022/10/25 14:32:59;;;;;;;3.53;0.70;;;;;;;;;;4983394;28;20129;-67
2022/10/25 14:35:43;;;;;;;2.25;0.68;;;;;;;;;;4988135;28;20417;-67
2022/10/25 14:38:26;;;;;;;4.40;0.95;;;;;;;;;;4987439;28;20050;-68
2022/10/25 14:40:58;;;;;;;3.13;0.70;;;;;;;;;;4988064;28;20660;-68
2022/10/25 14:43:35;;;;;;;1.33;0.70;;;;;;;;;;4982866;28;20038;-67
2022/10/25 14:46:08;;;;;;;3.10;0.85;;;;;;;;;;4984616;28;20484;-67
2022/10/25 14:48:34;;;;;;;1.75;0.70;;;;;;;;;;4985274;28;20062;-67
2022/10/25 14:51:05;;;;;;;1.48;0.60;;;;;;;;;;4979539;28;20054;-67
2022/10/25 14:53:31;;;;;;;3.45;0.65;;;;;;;;;;4978290;28;20042;-67
2022/10/25 14:55:58;;;;;;;1.92;0.73;;;;;;;;;;4983532;28;20109;-67
2022/10/25 14:58:24;;;;;;;4.35;0.65;;;;;;;;;;4982745;28;20046;-67
2022/10/25 15:00:56;;;;;;;4.13;0.80;;;;;;;;;;4987487;28;20156;-69
2022/10/25 15:03:23;;;;;;;2.67;0.77;;;;;;;;;;4987543;28;20410;-69
2022/10/25 15:05:50;;;;;;;1.63;0.57;;;;;;;;;;4977973;28;20054;-68
2022/10/25 15:08:22;;;;;;;1.48;0.63;;;;;;;;;;4982553;28;20055;-68